Time;durP1;ratioP1;P1;durP2;ratioP2;P2;SDS_P1;SDS_P2;PMS_P1;PMS_P2;Temp;Humidity;BMP_temperature;BMP_pressure;BME280_temperature;BME280_humidity;BME280_pressure;Samples;Min_cycle;Max_cycle;Signal;HPM_P1;HPM_P2
2023/03/01 00:00:07;;;;;;;14.80;8.40;;;5.30;44.10;;;;;;4998982;28;20450;-85
2023/03/01 00:02:38;;;;;;;13.90;7.70;;;5.20;44.10;;;;;;5001305;28;20978;-86
2023/03/01 00:05:07;;;;;;;19.27;10.20;;;5.20;44.40;;;;;;5001806;28;21003;-85
2023/03/01 00:07:38;;;;;;;16.83;9.40;;;5.20;44.50;;;;;;5014773;28;20442;-82
2023/03/01 00:10:05;;;;;;;12.37;8.00;;;5.10;44.70;;;;;;5008841;28;20473;-85
2023/03/01 00:12:32;;;;;;;13.43;8.87;;;5.10;44.30;;;;;;4997179;28;20470;-86
2023/03/01 00:14:59;;;;;;;16.87;8.37;;;5.10;44.90;;;;;;5013233;28;20522;-85
2023/03/01 00:17:28;;;;;;;20.63;10.90;;;4.90;45.30;;;;;;5018944;28;20732;-85
2023/03/01 00:19:55;;;;;;;19.83;9.30;;;4.70;45.30;;;;;;4999722;28;20463;-86
2023/03/01 00:22:23;;;;;;;15.80;8.80;;;4.70;45.60;;;;;;4987864;28;20462;-86
2023/03/01 00:24:51;;;;;;;15.43;8.10;;;4.80;45.20;;;;;;5011752;28;20441;-86
2023/03/01 00:27:18;;;;;;;18.93;9.67;;;4.80;45.40;;;;;;5028188;28;20453;-85
2023/03/01 00:29:45;;;;;;;15.53;8.27;;;4.70;45.90;;;;;;5012203;28;20789;-85
2023/03/01 00:32:12;;;;;;;16.57;9.70;;;4.80;45.90;;;;;;4995187;28;20466;-85
2023/03/01 00:34:39;;;;;;;15.40;9.30;;;4.80;45.50;;;;;;4985903;28;20442;-85
2023/03/01 00:37:05;;;;;;;21.13;9.97;;;4.80;45.70;;;;;;5005909;28;20519;-86
2023/03/01 00:39:33;;;;;;;15.07;8.40;;;4.90;45.90;;;;;;4994101;28;20465;-85
2023/03/01 00:42:01;;;;;;;14.57;8.93;;;4.90;45.80;;;;;;4982955;28;20490;-85
2023/03/01 00:44:28;;;;;;;17.00;8.80;;;4.90;45.70;;;;;;5002403;28;20515;-86
2023/03/01 00:46:55;;;;;;;16.43;8.90;;;5.00;45.80;;;;;;5003627;28;20457;-86
2023/03/01 00:49:24;;;;;;;15.80;10.03;;;5.00;45.50;;;;;;4993563;28;20473;-85
2023/03/01 00:51:50;;;;;;;19.70;9.53;;;5.10;45.20;;;;;;5034718;28;20469;-87
2023/03/01 00:54:17;;;;;;;16.93;9.87;;;5.10;44.90;;;;;;5025801;28;20452;-86
2023/03/01 00:56:44;;;;;;;19.90;10.40;;;5.10;44.70;;;;;;5001669;28;20446;-86
2023/03/01 00:59:12;;;;;;;22.63;9.30;;;5.10;44.90;;;;;;5033358;28;20445;-86
2023/03/01 01:01:40;;;;;;;18.47;8.30;;;5.10;44.80;;;;;;5014423;28;20664;-84
2023/03/01 01:04:08;;;;;;;25.73;10.50;;;5.00;44.60;;;;;;4992434;28;20451;-86
2023/03/01 01:06:38;;;;;;;16.53;9.63;;;5.00;44.80;;;;;;4983019;28;20446;-86
2023/03/01 01:09:06;;;;;;;14.77;8.70;;;4.60;45.60;;;;;;4998836;28;20458;-85
2023/03/01 01:11:35;;;;;;;14.70;7.60;;;4.50;44.90;;;;;;5016735;28;20485;-85
2023/03/01 01:14:03;;;;;;;20.70;9.70;;;4.40;45.00;;;;;;4992061;28;20462;-85
2023/03/01 01:16:31;;;;;;;15.10;8.77;;;4.20;45.10;;;;;;5001046;28;20443;-86
2023/03/01 01:18:58;;;;;;;16.87;9.20;;;4.00;45.70;;;;;;5012889;28;20448;-86
2023/03/01 01:21:26;;;;;;;18.93;9.57;;;3.90;46.10;;;;;;5006999;28;20810;-86
2023/03/01 01:23:54;;;;;;;18.33;9.53;;;3.80;47.30;;;;;;4991388;28;20943;-86
2023/03/01 01:26:23;;;;;;;21.10;10.17;;;3.70;46.90;;;;;;5034300;28;21776;-87
2023/03/01 01:28:51;;;;;;;15.33;8.10;;;3.60;46.50;;;;;;5018333;28;20508;-86
2023/03/01 01:31:19;;;;;;;17.07;8.33;;;3.70;46.30;;;;;;5017630;28;21003;-86
2023/03/01 01:33:47;;;;;;;17.90;8.77;;;3.70;46.70;;;;;;5007947;28;20446;-86
2023/03/01 01:36:14;;;;;;;16.10;8.57;;;3.70;46.50;;;;;;5017540;28;20449;-83
2023/03/01 01:38:42;;;;;;;16.60;8.40;;;3.50;47.00;;;;;;4993266;28;20462;-86
2023/03/01 01:41:11;;;;;;;20.30;9.83;;;3.50;47.50;;;;;;5002954;28;20485;-85
2023/03/01 01:43:41;;;;;;;17.70;8.90;;;3.60;47.70;;;;;;5033546;28;20454;-85
2023/03/01 01:46:21;;;;;;;20.13;8.63;;;3.80;48.30;;;;;;5000386;28;20967;-87
2023/03/01 01:48:53;;;;;;;16.47;9.47;;;3.80;48.00;;;;;;5004886;28;20836;-85
2023/03/01 01:51:24;;;;;;;18.30;8.50;;;4.10;47.50;;;;;;5019002;28;20992;-87
2023/03/01 01:53:55;;;;;;;20.03;9.70;;;4.20;46.80;;;;;;5008153;28;20440;-87
2023/03/01 01:56:25;;;;;;;15.80;8.60;;;4.30;46.70;;;;;;5002107;28;20982;-87
2023/03/01 01:58:52;;;;;;;18.23;9.33;;;4.40;46.80;;;;;;5007271;28;20906;-86
2023/03/01 02:01:20;;;;;;;19.73;9.80;;;4.50;46.10;;;;;;5015227;28;20466;-86
2023/03/01 02:03:49;;;;;;;16.90;9.40;;;4.50;45.60;;;;;;4988136;28;20445;-85
2023/03/01 02:06:22;;;;;;;18.63;9.50;;;4.50;45.30;;;;;;5019273;28;20434;-86
2023/03/01 02:08:51;;;;;;;16.50;8.30;;;4.50;46.20;;;;;;4993472;28;20510;-86
2023/03/01 02:11:19;;;;;;;16.80;9.40;;;4.50;46.20;;;;;;5009279;28;20466;-86
2023/03/01 02:13:49;;;;;;;15.87;8.77;;;4.50;46.30;;;;;;5013560;28;20968;-86
2023/03/01 02:16:17;;;;;;;22.27;10.27;;;4.60;46.00;;;;;;5022926;28;20459;-86
2023/03/01 02:18:45;;;;;;;17.00;9.93;;;4.60;46.00;;;;;;5023669;28;20534;-85
2023/03/01 02:21:31;;;;;;;22.20;10.07;;;4.30;46.50;;;;;;4985665;28;20459;-86
2023/03/01 02:24:04;;;;;;;14.00;8.13;;;4.20;46.90;;;;;;5006633;28;20443;-86
2023/03/01 02:26:41;;;;;;;17.30;9.50;;;4.30;46.60;;;;;;5001464;28;20445;-86
2023/03/01 02:29:09;;;;;;;19.93;10.03;;;4.40;46.10;;;;;;5001319;28;20580;-86
2023/03/01 02:31:42;;;;;;;19.63;9.60;;;4.40;45.90;;;;;;5006186;28;20478;-85
2023/03/01 02:34:11;;;;;;;20.53;10.20;;;4.30;46.20;;;;;;5001138;28;20450;-86
2023/03/01 02:36:41;;;;;;;22.60;10.13;;;4.30;47.00;;;;;;5012950;28;20448;-86
2023/03/01 02:39:17;;;;;;;19.60;9.67;;;4.30;46.50;;;;;;5031104;28;20448;-86
2023/03/01 02:41:47;;;;;;;12.73;7.33;;;4.20;46.00;;;;;;4986419;28;20455;-86
2023/03/01 02:44:16;;;;;;;24.80;10.27;;;4.10;46.20;;;;;;5015723;28;20452;-87
2023/03/01 02:46:44;;;;;;;26.97;10.20;;;4.00;46.40;;;;;;5003013;28;20459;-86
2023/03/01 02:49:24;;;;;;;24.30;10.40;;;4.00;46.50;;;;;;5012956;28;20478;-85
2023/03/01 02:52:09;;;;;;;21.60;10.47;;;4.10;46.40;;;;;;5016644;28;20462;-84
2023/03/01 02:54:42;;;;;;;18.57;9.53;;;4.10;45.90;;;;;;5022190;28;20455;-86
2023/03/01 02:57:10;;;;;;;17.77;10.30;;;4.10;46.10;;;;;;5022817;28;20458;-83
2023/03/01 02:59:40;;;;;;;14.03;8.50;;;4.20;46.50;;;;;;5007005;28;20456;-85
2023/03/01 03:02:09;;;;;;;20.57;9.37;;;4.10;45.80;;;;;;4992658;28;21005;-86
2023/03/01 03:04:35;;;;;;;14.50;8.30;;;4.10;45.90;;;;;;4985234;28;20723;-86
2023/03/01 03:07:02;;;;;;;18.77;9.87;;;4.10;46.20;;;;;;4990649;28;20450;-86
2023/03/01 03:09:29;;;;;;;21.13;10.17;;;4.10;46.50;;;;;;4999184;28;20835;-86
2023/03/01 03:11:57;;;;;;;17.60;9.80;;;4.20;46.00;;;;;;5000729;28;20470;-85
2023/03/01 03:14:24;;;;;;;17.57;9.20;;;4.00;45.40;;;;;;5012183;28;20434;-85
2023/03/01 03:16:52;;;;;;;14.97;8.80;;;3.80;46.30;;;;;;5002609;28;20474;-85
2023/03/01 03:19:20;;;;;;;19.20;9.40;;;3.80;46.90;;;;;;4987380;28;20495;-85
2023/03/01 03:21:47;;;;;;;22.27;10.77;;;3.80;46.60;;;;;;5018273;28;20468;-83
2023/03/01 03:24:14;;;;;;;19.43;10.73;;;3.70;46.50;;;;;;4999391;28;20446;-85
2023/03/01 03:26:41;;;;;;;21.10;9.90;;;3.70;46.50;;;;;;5000133;28;20446;-86
2023/03/01 03:29:08;;;;;;;19.93;8.93;;;3.70;46.40;;;;;;5005940;28;20469;-85
2023/03/01 03:31:35;;;;;;;21.47;10.07;;;3.70;46.40;;;;;;5005418;28;20532;-86
2023/03/01 03:34:03;;;;;;;24.43;11.03;;;3.70;46.70;;;;;;5028968;28;20800;-87
2023/03/01 03:36:30;;;;;;;15.80;7.97;;;3.60;47.10;;;;;;4985209;28;20458;-85
2023/03/01 03:38:57;;;;;;;19.77;9.80;;;3.70;47.00;;;;;;4982814;28;20465;-86
2023/03/01 03:41:24;;;;;;;17.77;8.83;;;3.50;47.10;;;;;;5030331;28;20462;-85
2023/03/01 03:43:51;;;;;;;20.03;9.83;;;3.40;47.30;;;;;;4986227;28;20503;-85
2023/03/01 03:46:18;;;;;;;18.13;9.90;;;3.30;47.80;;;;;;4991517;28;20464;-84
2023/03/01 03:48:46;;;;;;;25.67;9.53;;;3.40;47.90;;;;;;5006476;28;20450;-84
2023/03/01 03:51:17;;;;;;;26.80;10.83;;;3.30;48.00;;;;;;4991172;28;20484;-86
2023/03/01 03:53:44;;;;;;;18.97;8.90;;;3.20;48.30;;;;;;4996550;28;20512;-86
2023/03/01 03:56:12;;;;;;;21.67;10.10;;;3.20;47.40;;;;;;5006990;28;20499;-85
2023/03/01 03:58:39;;;;;;;21.47;9.63;;;3.10;47.50;;;;;;4986243;28;20457;-86
2023/03/01 04:01:06;;;;;;;17.50;9.73;;;3.20;47.80;;;;;;5001296;28;20466;-85
2023/03/01 04:03:34;;;;;;;24.37;10.80;;;3.30;48.10;;;;;;5007514;28;20461;-86
2023/03/01 04:06:02;;;;;;;15.90;10.10;;;3.30;47.40;;;;;;4997264;28;20442;-85
2023/03/01 04:08:30;;;;;;;18.13;8.90;;;3.20;47.50;;;;;;4978745;28;20504;-84
2023/03/01 04:11:25;;;;;;;18.00;8.53;;;3.00;49.10;;;;;;5019713;28;20863;-85
2023/03/01 04:13:52;;;;;;;20.40;9.63;;;3.00;48.70;;;;;;4998393;28;20487;-85
2023/03/01 04:16:19;;;;;;;16.73;8.87;;;3.10;48.60;;;;;;5009342;28;20431;-84
2023/03/01 04:18:46;;;;;;;20.30;9.80;;;3.10;48.80;;;;;;4993454;28;20452;-84
2023/03/01 04:21:13;;;;;;;20.23;9.90;;;3.30;48.50;;;;;;5018686;28;20453;-84
2023/03/01 04:23:41;;;;;;;23.63;13.23;;;3.50;48.00;;;;;;5024814;28;20963;-86
2023/03/01 04:26:08;;;;;;;23.87;11.73;;;3.60;47.60;;;;;;5031615;28;20457;-86
2023/03/01 04:28:38;;;;;;;33.13;14.83;;;3.70;47.70;;;;;;5030920;28;20446;-85
2023/03/01 04:31:12;;;;;;;28.63;14.70;;;3.30;48.50;;;;;;4996287;28;20886;-83
2023/03/01 04:33:40;;;;;;;47.03;20.87;;;3.40;48.30;;;;;;4978499;28;20838;-85
2023/03/01 04:36:09;;;;;;;42.40;19.20;;;3.40;48.00;;;;;;5005960;28;20521;-85
2023/03/01 04:38:37;;;;;;;58.70;22.67;;;3.50;47.90;;;;;;4990093;28;20531;-84
2023/03/01 04:41:07;;;;;;;28.77;13.80;;;3.50;47.90;;;;;;5004208;28;20503;-84
2023/03/01 04:43:35;;;;;;;21.03;11.17;;;3.50;48.00;;;;;;5000201;28;21158;-85
2023/03/01 04:46:03;;;;;;;20.80;10.97;;;3.40;48.30;;;;;;5014740;28;20478;-84
2023/03/01 04:48:31;;;;;;;28.27;13.63;;;3.60;48.00;;;;;;4992729;28;20546;-84
2023/03/01 04:50:59;;;;;;;27.70;13.83;;;3.80;47.80;;;;;;4999912;28;20495;-84
2023/03/01 04:53:26;;;;;;;25.40;11.87;;;3.80;47.30;;;;;;5015647;28;20441;-84
2023/03/01 04:55:54;;;;;;;27.70;12.90;;;3.90;47.10;;;;;;4982686;28;20445;-84
2023/03/01 04:58:23;;;;;;;25.27;12.20;;;3.90;47.00;;;;;;5005261;28;20456;-84
2023/03/01 05:00:50;;;;;;;20.10;10.73;;;3.80;46.90;;;;;;4990329;28;20466;-84
2023/03/01 05:03:18;;;;;;;18.63;11.30;;;3.60;47.50;;;;;;4984572;28;20461;-86
2023/03/01 05:05:46;;;;;;;24.60;12.53;;;3.70;47.40;;;;;;5005785;28;20485;-85
2023/03/01 05:08:17;;;;;;;23.07;13.33;;;3.70;47.10;;;;;;4984836;28;20988;-87
2023/03/01 05:10:46;;;;;;;37.47;19.10;;;3.60;46.90;;;;;;4982750;28;20587;-85
2023/03/01 05:13:20;;;;;;;29.03;16.63;;;3.60;47.10;;;;;;4996874;28;20983;-86
2023/03/01 05:15:50;;;;;;;24.87;13.00;;;3.70;47.40;;;;;;5000644;28;20445;-85
2023/03/01 05:18:17;;;;;;;39.10;18.63;;;3.70;47.30;;;;;;4985652;28;20507;-86
2023/03/01 05:20:44;;;;;;;36.67;18.80;;;3.80;47.10;;;;;;4981700;28;20480;-86
2023/03/01 05:23:11;;;;;;;59.30;25.70;;;3.80;47.80;;;;;;4980754;28;20450;-85
2023/03/01 05:25:39;;;;;;;44.30;19.67;;;3.90;47.40;;;;;;4997007;28;20458;-83
2023/03/01 05:28:11;;;;;;;33.17;16.20;;;3.90;47.10;;;;;;4983240;28;20454;-85
2023/03/01 05:30:39;;;;;;;30.47;15.00;;;4.00;46.90;;;;;;4983402;28;20971;-85
2023/03/01 05:33:12;;;;;;;36.47;18.90;;;3.90;47.00;;;;;;5003376;28;20533;-83
2023/03/01 05:35:41;;;;;;;21.17;10.30;;;4.00;46.80;;;;;;4981796;28;20451;-85
2023/03/01 05:38:12;;;;;;;22.90;10.03;;;3.90;47.10;;;;;;4983889;28;20464;-85
2023/03/01 05:40:40;;;;;;;32.50;12.77;;;3.90;47.40;;;;;;4981343;28;20451;-86
2023/03/01 05:43:08;;;;;;;19.90;11.20;;;3.80;47.10;;;;;;5017359;28;20455;-84
2023/03/01 05:45:37;;;;;;;21.00;11.70;;;3.80;47.60;;;;;;5030442;28;20451;-86
2023/03/01 05:48:05;;;;;;;23.77;11.30;;;3.90;46.90;;;;;;4981839;28;20472;-85
2023/03/01 05:50:36;;;;;;;18.50;10.40;;;3.80;46.80;;;;;;4997961;28;20556;-86
2023/03/01 05:53:05;;;;;;;23.93;10.17;;;3.90;47.20;;;;;;4983939;28;20550;-85
2023/03/01 05:55:33;;;;;;;19.87;8.73;;;3.90;46.90;;;;;;4983167;28;20454;-84
2023/03/01 05:58:01;;;;;;;18.23;10.50;;;4.00;46.70;;;;;;4978621;28;20478;-84
2023/03/01 06:00:29;;;;;;;23.40;10.20;;;4.00;47.40;;;;;;5004281;28;20524;-85
2023/03/01 06:02:57;;;;;;;20.40;11.30;;;4.10;46.70;;;;;;4987850;28;20858;-85
2023/03/01 06:05:26;;;;;;;21.10;11.77;;;4.10;46.30;;;;;;5001725;28;20539;-85
2023/03/01 06:07:55;;;;;;;20.50;11.13;;;3.90;46.90;;;;;;4988114;28;20445;-85
2023/03/01 06:10:23;;;;;;;21.27;11.03;;;4.00;46.90;;;;;;4995678;28;20474;-84
2023/03/01 06:12:50;;;;;;;22.50;10.73;;;4.00;46.60;;;;;;4986771;28;20477;-85
2023/03/01 06:15:18;;;;;;;20.93;10.20;;;4.00;46.90;;;;;;4989186;28;21042;-85
2023/03/01 06:17:46;;;;;;;19.90;10.57;;;4.00;46.80;;;;;;4999137;28;20461;-82
2023/03/01 06:20:16;;;;;;;17.73;9.90;;;4.00;46.80;;;;;;5013611;28;20443;-85
2023/03/01 06:22:43;;;;;;;19.47;10.40;;;4.00;46.30;;;;;;5011516;28;20482;-85
2023/03/01 06:25:13;;;;;;;23.70;12.33;;;4.00;46.30;;;;;;5000349;28;20456;-84
2023/03/01 06:27:41;;;;;;;32.10;13.50;;;4.10;46.70;;;;;;5004731;28;20464;-85
2023/03/01 06:30:10;;;;;;;19.00;10.40;;;4.10;46.60;;;;;;4989324;28;20469;-85
2023/03/01 06:32:37;;;;;;;25.80;11.07;;;4.10;46.60;;;;;;5011256;28;20481;-85
2023/03/01 06:35:05;;;;;;;25.63;11.53;;;4.20;46.70;;;;;;5005779;28;20447;-84
2023/03/01 06:37:32;;;;;;;17.87;10.53;;;4.20;46.50;;;;;;4982322;28;20729;-84
2023/03/01 06:39:58;;;;;;;19.47;10.57;;;4.30;46.40;;;;;;5012245;28;20461;-84
2023/03/01 06:42:27;;;;;;;26.53;11.60;;;4.20;46.20;;;;;;4999259;28;20480;-85
2023/03/01 06:44:54;;;;;;;21.90;12.00;;;4.30;46.40;;;;;;5013749;28;20857;-85
2023/03/01 06:47:20;;;;;;;20.07;11.40;;;4.20;46.60;;;;;;5028547;28;22547;-83
2023/03/01 06:49:47;;;;;;;18.87;11.67;;;4.30;46.60;;;;;;5010966;28;21094;-83
2023/03/01 06:52:14;;;;;;;19.03;11.00;;;4.30;46.80;;;;;;5003725;28;20501;-84
2023/03/01 06:54:41;;;;;;;29.07;13.20;;;4.30;46.90;;;;;;5013425;28;20457;-85
2023/03/01 06:57:08;;;;;;;39.97;17.03;;;4.30;46.80;;;;;;5029715;28;20464;-84
2023/03/01 06:59:36;;;;;;;30.30;14.63;;;4.30;46.80;;;;;;5002473;28;21078;-84
2023/03/01 07:02:03;;;;;;;25.57;13.23;;;4.30;46.90;;;;;;5002293;28;21280;-84
2023/03/01 07:04:30;;;;;;;27.83;12.87;;;4.30;46.40;;;;;;5010797;28;20454;-84
2023/03/01 07:06:57;;;;;;;23.03;13.27;;;4.40;46.30;;;;;;4978747;28;20478;-83
2023/03/01 07:09:25;;;;;;;20.80;10.40;;;4.40;46.30;;;;;;5007653;28;20867;-85
2023/03/01 07:11:52;;;;;;;21.47;9.60;;;4.30;46.30;;;;;;4998506;28;20470;-85
2023/03/01 07:14:19;;;;;;;23.07;12.17;;;4.20;46.30;;;;;;5006264;28;21284;-84
2023/03/01 07:16:47;;;;;;;22.53;11.97;;;4.30;46.60;;;;;;5009242;28;20458;-82
2023/03/01 07:19:14;;;;;;;25.73;12.70;;;4.30;47.00;;;;;;5028710;28;20468;-84
2023/03/01 07:21:41;;;;;;;21.10;11.47;;;4.30;46.80;;;;;;5027309;28;20466;-85
2023/03/01 07:24:09;;;;;;;23.83;10.57;;;4.10;46.80;;;;;;5013322;28;20454;-84
2023/03/01 07:26:36;;;;;;;25.80;12.77;;;4.10;46.90;;;;;;4996191;28;20467;-84
2023/03/01 07:29:05;;;;;;;28.30;13.90;;;4.00;47.20;;;;;;4979563;28;20449;-81
2023/03/01 07:31:32;;;;;;;24.70;12.90;;;4.00;47.60;;;;;;5009906;28;20827;-82
2023/03/01 07:34:00;;;;;;;16.83;9.37;;;4.10;47.70;;;;;;5011607;28;20507;-85
2023/03/01 07:36:27;;;;;;;21.80;11.57;;;4.20;47.40;;;;;;5017819;28;20796;-82
2023/03/01 07:38:55;;;;;;;23.53;10.13;;;4.30;47.00;;;;;;5013711;28;20442;-83
2023/03/01 07:41:22;;;;;;;17.13;11.27;;;4.30;47.20;;;;;;4997928;28;20473;-84
2023/03/01 07:43:49;;;;;;;23.07;10.47;;;4.30;47.40;;;;;;4995026;28;20438;-84
2023/03/01 07:46:17;;;;;;;25.33;11.00;;;4.20;47.20;;;;;;5029370;28;20854;-85
2023/03/01 07:48:44;;;;;;;18.43;11.10;;;4.30;47.30;;;;;;4994595;28;20982;-85
2023/03/01 07:51:12;;;;;;;23.53;10.80;;;4.20;47.20;;;;;;5009490;28;20481;-83
2023/03/01 07:53:39;;;;;;;23.60;11.80;;;4.30;47.30;;;;;;5004115;28;20508;-85
2023/03/01 07:56:08;;;;;;;19.07;9.80;;;4.50;47.20;;;;;;5008625;28;20474;-83
2023/03/01 07:58:36;;;;;;;23.63;10.50;;;4.60;47.00;;;;;;5004541;28;20500;-84
2023/03/01 08:01:03;;;;;;;18.73;10.43;;;4.70;46.70;;;;;;4982082;28;20557;-84
2023/03/01 08:03:30;;;;;;;22.97;11.20;;;4.70;46.50;;;;;;5017362;28;20460;-84
2023/03/01 08:05:59;;;;;;;20.80;12.07;;;4.70;46.70;;;;;;5004222;28;21059;-85
2023/03/01 08:08:28;;;;;;;23.40;11.27;;;4.60;46.60;;;;;;5014267;28;20507;-84
2023/03/01 08:10:57;;;;;;;21.07;9.53;;;4.30;46.90;;;;;;4994883;28;20527;-85
2023/03/01 08:13:24;;;;;;;20.13;11.60;;;4.40;47.20;;;;;;5012258;28;20450;-84
2023/03/01 08:15:52;;;;;;;16.63;9.97;;;4.50;46.90;;;;;;4980419;28;20446;-84
2023/03/01 08:18:20;;;;;;;17.63;9.60;;;4.50;46.60;;;;;;5000190;28;20475;-85
2023/03/01 08:20:48;;;;;;;20.87;11.20;;;4.60;46.70;;;;;;5008883;28;20455;-84
2023/03/01 08:23:15;;;;;;;21.23;10.17;;;4.70;46.30;;;;;;5003910;28;20481;-84
2023/03/01 08:25:43;;;;;;;20.40;11.20;;;4.70;46.10;;;;;;4992174;28;21008;-84
2023/03/01 08:28:10;;;;;;;22.73;12.07;;;4.70;46.10;;;;;;4985661;28;20457;-84
2023/03/01 08:30:37;;;;;;;21.97;11.20;;;4.50;46.30;;;;;;5007172;28;20462;-84
2023/03/01 08:33:04;;;;;;;20.30;10.80;;;4.60;46.80;;;;;;5013482;28;20454;-85
2023/03/01 08:35:31;;;;;;;21.50;10.17;;;4.70;46.50;;;;;;5000442;28;20449;-81
2023/03/01 08:37:58;;;;;;;18.97;10.13;;;4.70;46.20;;;;;;5004986;28;20453;-85
2023/03/01 08:40:24;;;;;;;19.30;10.40;;;4.90;46.40;;;;;;5002620;28;20818;-85
2023/03/01 08:42:53;;;;;;;21.77;10.23;;;5.10;46.00;;;;;;5012744;28;21472;-84
2023/03/01 08:45:19;;;;;;;24.20;11.80;;;4.70;46.10;;;;;;5030057;28;20451;-84
2023/03/01 08:47:46;;;;;;;29.83;11.40;;;4.80;46.80;;;;;;5028888;28;20980;-84
2023/03/01 08:50:13;;;;;;;17.87;11.33;;;5.10;46.30;;;;;;5030972;28;21006;-85
2023/03/01 08:52:40;;;;;;;22.30;9.73;;;5.00;45.70;;;;;;5010399;28;20474;-85
2023/03/01 08:55:08;;;;;;;23.77;10.30;;;5.00;45.40;;;;;;5011001;28;20886;-85
2023/03/01 08:57:35;;;;;;;18.33;10.37;;;5.20;45.30;;;;;;5000700;28;20470;-85
2023/03/01 09:00:08;;;;;;;25.73;11.87;;;5.20;45.10;;;;;;4999128;28;20449;-84
2023/03/01 09:02:35;;;;;;;14.90;9.20;;;5.20;45.80;;;;;;5030067;28;20498;-85
2023/03/01 09:05:02;;;;;;;19.73;10.67;;;5.40;45.10;;;;;;4991629;28;20507;-86
2023/03/01 09:07:29;;;;;;;18.73;9.17;;;5.40;44.90;;;;;;4995147;28;20564;-85
2023/03/01 09:09:56;;;;;;;20.67;10.73;;;5.60;44.80;;;;;;4998989;28;20596;-85
2023/03/01 09:12:24;;;;;;;21.80;10.70;;;5.40;44.50;;;;;;5013633;28;20490;-85
2023/03/01 09:14:51;;;;;;;20.03;11.13;;;5.40;45.10;;;;;;5020277;28;20531;-85
2023/03/01 09:17:21;;;;;;;28.40;11.43;;;5.60;44.70;;;;;;5014227;28;20449;-84
2023/03/01 09:19:49;;;;;;;22.50;10.63;;;5.60;44.20;;;;;;4994094;28;20812;-84
2023/03/01 09:22:16;;;;;;;20.70;11.60;;;5.70;44.10;;;;;;4998467;28;20465;-84
2023/03/01 09:24:42;;;;;;;21.03;12.83;;;5.50;43.90;;;;;;5001263;28;20458;-83
2023/03/01 09:27:10;;;;;;;19.70;10.47;;;5.60;44.10;;;;;;5017228;28;20449;-84
2023/03/01 09:29:37;;;;;;;23.00;11.90;;;5.60;44.00;;;;;;4988866;28;20457;-84
2023/03/01 09:32:04;;;;;;;20.30;12.57;;;5.70;44.40;;;;;;5000947;28;21097;-84
2023/03/01 09:35:00;;;;;;;18.30;10.50;;;5.70;44.30;;;;;;5012345;28;20504;-84
2023/03/01 09:37:19;;;;;;;22.80;11.83;;;5.80;44.10;;;;;;4995921;28;20975;-84
2023/03/01 09:39:46;;;;;;;23.63;12.10;;;5.70;43.70;;;;;;5001558;28;20874;-83
2023/03/01 09:42:15;;;;;;;24.17;11.70;;;6.00;44.30;;;;;;5030191;28;20528;-83
2023/03/01 09:44:48;;;;;;;21.80;12.00;;;6.30;44.00;;;;;;5005252;28;20442;-84
2023/03/01 09:47:19;;;;;;;20.63;11.93;;;6.40;43.30;;;;;;5000925;28;20464;-83
2023/03/01 09:49:59;;;;;;;29.80;12.60;;;6.50;43.40;;;;;;5028027;28;21504;-82
2023/03/01 09:52:34;;;;;;;23.50;12.00;;;6.90;43.50;;;;;;5020145;28;20501;-83
2023/03/01 09:55:01;;;;;;;21.57;12.07;;;7.00;42.50;;;;;;5030883;28;20464;-84
2023/03/01 09:57:37;;;;;;;19.17;12.37;;;6.90;42.20;;;;;;5032000;28;20466;-84
2023/03/01 10:00:35;;;;;;;21.40;11.37;;;7.10;41.90;;;;;;5030412;28;20467;-84
2023/03/01 10:03:10;;;;;;;22.87;11.80;;;7.10;40.80;;;;;;4996493;28;20457;-84
2023/03/01 10:05:44;;;;;;;25.00;11.63;;;6.80;41.20;;;;;;5019466;28;20496;-84
2023/03/01 10:08:35;;;;;;;24.93;12.90;;;6.80;41.50;;;;;;5002213;28;20458;-85
2023/03/01 10:11:03;;;;;;;18.90;10.60;;;6.80;41.00;;;;;;5012702;28;20489;-84
2023/03/01 10:13:38;;;;;;;17.97;11.67;;;7.00;41.00;;;;;;5009712;28;20454;-84
2023/03/01 10:16:14;;;;;;;21.00;11.70;;;7.30;41.00;;;;;;4995566;28;20950;-84
2023/03/01 10:18:43;;;;;;;19.70;10.50;;;7.40;40.60;;;;;;5015684;28;20869;-84
2023/03/01 10:21:16;;;;;;;20.17;11.30;;;7.60;40.10;;;;;;5015396;28;20486;-84
2023/03/01 10:23:43;;;;;;;19.70;12.40;;;7.80;39.80;;;;;;5003449;28;20457;-83
2023/03/01 10:26:30;;;;;;;27.50;14.20;;;7.70;39.60;;;;;;4994906;28;20458;-84
2023/03/01 10:29:03;;;;;;;32.93;13.47;;;8.00;39.90;;;;;;5009913;28;20458;-85
2023/03/01 10:31:42;;;;;;;25.27;11.40;;;8.20;39.00;;;;;;5027815;28;20477;-83
2023/03/01 10:34:14;;;;;;;22.43;12.27;;;8.30;38.80;;;;;;5003591;28;20464;-84
2023/03/01 10:36:43;;;;;;;20.00;12.47;;;8.50;38.50;;;;;;4999719;28;20508;-84
2023/03/01 10:39:17;;;;;;;20.83;12.20;;;8.60;37.90;;;;;;5006309;28;20497;-83
2023/03/01 10:42:03;;;;;;;21.83;11.80;;;8.70;38.10;;;;;;5001249;28;20473;-84
2023/03/01 10:44:45;;;;;;;19.33;10.70;;;8.90;37.20;;;;;;5010819;28;20469;-83
2023/03/01 10:47:20;;;;;;;20.43;12.53;;;8.50;37.40;;;;;;5015347;28;20450;-83
2023/03/01 10:49:58;;;;;;;25.70;11.80;;;8.60;38.20;;;;;;5028523;28;20564;-82
2023/03/01 10:52:32;;;;;;;21.40;10.87;;;8.80;37.50;;;;;;5013597;28;20482;-83
2023/03/01 10:55:01;;;;;;;16.20;9.43;;;8.70;37.40;;;;;;4989580;28;20488;-84
2023/03/01 10:57:37;;;;;;;21.80;10.60;;;8.80;37.30;;;;;;5015567;28;20457;-84
2023/03/01 11:00:19;;;;;;;21.30;11.37;;;9.00;37.00;;;;;;4997829;28;20459;-83
2023/03/01 11:02:49;;;;;;;16.07;10.17;;;9.30;36.60;;;;;;4999657;28;20499;-83
2023/03/01 11:05:24;;;;;;;21.50;11.80;;;9.40;35.70;;;;;;5028222;28;20582;-81
2023/03/01 11:07:56;;;;;;;26.10;11.40;;;9.50;36.50;;;;;;5002040;28;21159;-83
2023/03/01 11:10:26;;;;;;;20.03;11.67;;;9.80;36.40;;;;;;5009001;28;20488;-83
2023/03/01 11:12:54;;;;;;;18.93;11.60;;;9.70;36.00;;;;;;5002654;28;20479;-84
2023/03/01 11:15:25;;;;;;;45.40;18.07;;;9.90;35.60;;;;;;5029855;28;20458;-84
2023/03/01 11:17:53;;;;;;;22.80;13.03;;;9.70;35.70;;;;;;5009095;28;20501;-85
2023/03/01 11:20:26;;;;;;;28.97;11.67;;;9.80;36.20;;;;;;5021177;28;20446;-83
2023/03/01 11:22:58;;;;;;;21.60;10.87;;;9.90;35.20;;;;;;5011591;28;20480;-84
2023/03/01 11:25:28;;;;;;;19.10;11.67;;;9.70;36.00;;;;;;5020137;28;20434;-84
2023/03/01 11:27:57;;;;;;;18.90;11.77;;;9.80;34.90;;;;;;5013532;28;20466;-83
2023/03/01 11:30:28;;;;;;;16.10;10.20;;;10.00;34.10;;;;;;4993895;28;21306;-83
2023/03/01 11:33:09;;;;;;;17.83;9.33;;;9.90;34.60;;;;;;5010547;28;20489;-83
2023/03/01 11:35:42;;;;;;;18.10;10.40;;;10.10;34.30;;;;;;5027648;28;20458;-83
2023/03/01 11:38:19;;;;;;;21.33;10.90;;;10.20;33.70;;;;;;4996162;28;20461;-83
2023/03/01 11:40:52;;;;;;;22.87;11.60;;;10.50;33.20;;;;;;4995833;28;20434;-83
2023/03/01 11:43:27;;;;;;;15.77;9.40;;;10.30;33.60;;;;;;4984165;28;20458;-83
2023/03/01 11:46:29;;;;;;;19.50;11.80;;;10.20;33.60;;;;;;5029850;28;20461;-85
2023/03/01 11:49:09;;;;;;;15.97;10.27;;;10.30;34.30;;;;;;5014701;28;20461;-84
2023/03/01 11:51:47;;;;;;;21.43;11.80;;;10.40;33.00;;;;;;5028613;28;20523;-84
2023/03/01 11:54:26;;;;;;;23.53;11.93;;;10.50;33.90;;;;;;4985109;28;20534;-84
2023/03/01 11:56:58;;;;;;;17.50;11.00;;;10.60;33.00;;;;;;4998288;28;20461;-84
2023/03/01 12:00:03;;;;;;;24.80;13.50;;;10.50;32.90;;;;;;5028598;28;20463;-84
2023/03/01 12:03:05;;;;;;;17.10;10.43;;;10.70;33.80;;;;;;4997602;28;20458;-84
2023/03/01 12:05:58;;;;;;;21.43;11.10;;;10.90;32.80;;;;;;5014285;28;20456;-83
2023/03/01 12:08:31;;;;;;;20.90;12.57;;;10.70;32.90;;;;;;5004314;28;20875;-83
2023/03/01 12:11:11;;;;;;;19.03;11.23;;;10.80;33.50;;;;;;5009550;28;20497;-84
2023/03/01 12:14:00;;;;;;;20.50;11.20;;;11.10;33.30;;;;;;5028659;28;20978;-81
2023/03/01 12:16:49;;;;;;;39.43;17.37;;;11.30;32.80;;;;;;4997764;28;20472;-84
2023/03/01 12:19:31;;;;;;;17.70;10.50;;;11.30;32.60;;;;;;4985894;28;20520;-83
2023/03/01 12:22:13;;;;;;;21.97;12.30;;;11.60;32.10;;;;;;4999343;28;20549;-85
2023/03/01 12:25:12;;;;;;;22.30;12.27;;;11.90;31.40;;;;;;5028191;28;22776;-84
2023/03/01 12:27:59;;;;;;;15.93;11.43;;;12.00;32.20;;;;;;4979627;28;20565;-84
2023/03/01 12:30:36;;;;;;;18.87;10.70;;;11.80;31.20;;;;;;5001882;28;20459;-84
2023/03/01 12:33:18;;;;;;;17.90;10.30;;;11.70;31.10;;;;;;4997732;28;20610;-84
2023/03/01 12:36:03;;;;;;;19.07;11.23;;;11.80;31.00;;;;;;5008336;28;20536;-84
2023/03/01 12:38:38;;;;;;;20.23;9.43;;;11.80;31.50;;;;;;5017995;28;20458;-85
2023/03/01 12:41:39;;;;;;;17.00;10.40;;;11.80;31.00;;;;;;5001808;28;20512;-85
2023/03/01 12:44:27;;;;;;;16.47;9.73;;;11.40;32.30;;;;;;5000001;28;20449;-85
2023/03/01 12:47:16;;;;;;;18.20;10.70;;;11.70;31.60;;;;;;4990340;28;20499;-84
2023/03/01 12:49:49;;;;;;;17.23;10.17;;;11.70;30.60;;;;;;4988983;28;21445;-83
2023/03/01 12:52:22;;;;;;;15.70;10.27;;;11.40;31.20;;;;;;5018899;28;20971;-84
2023/03/01 12:54:52;;;;;;;19.93;10.13;;;11.60;31.60;;;;;;5004859;28;20474;-84